createdAt,value
2019-02-17T07:04:22.271Z,1001.80
2019-02-17T07:05:23.591Z,1001.85
2019-02-17T07:06:23.756Z,1001.84
2019-02-17T07:07:23.971Z,1001.80
2019-02-17T07:08:24.180Z,1001.73
2019-02-17T07:09:24.294Z,1001.80
2019-02-17T07:10:24.490Z,1001.75
2019-02-17T07:11:24.780Z,1001.87
2019-02-17T07:12:24.873Z,1001.76
2019-02-17T07:13:25.003Z,1001.77
2019-02-17T07:14:25.145Z,1001.72
2019-02-17T07:15:25.301Z,1001.78
2019-02-17T07:16:25.501Z,1001.75
2019-02-17T07:17:25.699Z,1001.71
2019-02-17T07:18:25.982Z,1001.70
2019-02-17T07:19:27.039Z,1001.77
2019-02-17T07:20:26.160Z,1001.77
2019-02-17T07:21:26.340Z,1001.78
2019-02-17T07:22:27.009Z,1001.78
2019-02-17T07:23:27.727Z,1001.72
2019-02-17T07:24:26.970Z,1001.73
2019-02-17T07:25:30.012Z,1001.80
2019-02-17T07:26:28.270Z,1001.79
2019-02-17T07:27:27.993Z,1001.83
2019-02-17T07:28:28.513Z,1001.79
2019-02-17T07:29:28.656Z,1001.85
2019-02-17T07:30:27.918Z,1001.83
2019-02-17T07:31:34.651Z,1001.81
2019-02-17T07:32:30.192Z,1001.74
2019-02-17T07:33:28.305Z,1001.78
2019-02-17T07:34:28.503Z,1001.76
2019-02-17T07:35:28.735Z,1001.79
2019-02-17T07:36:28.887Z,1001.81
2019-02-17T07:37:33.527Z,1001.74
2019-02-17T07:38:31.304Z,1001.73
2019-02-17T07:39:29.620Z,1001.72
2019-02-17T07:40:29.496Z,1001.73
2019-02-17T07:41:29.644Z,1001.72
2019-02-17T07:42:29.820Z,1001.70
2019-02-17T07:43:29.962Z,1001.66
2019-02-17T07:44:30.097Z,1001.68
2019-02-17T07:45:31.052Z,1001.62
2019-02-17T07:46:30.455Z,1001.67
2019-02-17T07:47:30.569Z,1001.67
2019-02-17T07:48:30.801Z,1001.70
2019-02-17T07:49:30.870Z,1001.59
2019-02-17T07:50:30.997Z,1001.64
2019-02-17T07:51:31.157Z,1001.60
2019-02-17T07:52:31.346Z,1001.61
2019-02-17T07:53:32.175Z,1001.62
2019-02-17T07:54:31.682Z,1001.67
2019-02-17T07:55:31.821Z,1001.71
2019-02-17T07:56:31.979Z,1001.68
2019-02-17T07:57:33.107Z,1001.60
2019-02-17T07:58:33.038Z,1001.60
2019-02-17T07:59:32.376Z,1001.66
2019-02-17T08:00:32.596Z,1001.63
2019-02-17T08:01:32.911Z,1001.66
2019-02-17T08:02:33.039Z,1001.62
2019-02-17T08:03:33.221Z,1001.65
2019-02-17T08:04:33.350Z,1001.60
2019-02-17T08:05:33.521Z,1001.66
2019-02-17T08:06:33.683Z,1001.62
2019-02-17T08:07:33.919Z,1001.65
2019-02-17T08:08:34.098Z,1001.65
2019-02-17T08:09:34.326Z,1001.63
2019-02-17T08:10:34.638Z,1001.62
2019-02-17T08:11:34.831Z,1001.69
2019-02-17T08:12:34.808Z,1001.62
2019-02-17T08:13:35.031Z,1001.56
2019-02-17T08:14:35.142Z,1001.55
2019-02-17T08:15:35.377Z,1001.62
2019-02-17T08:16:35.818Z,1001.55
2019-02-17T08:17:35.818Z,1001.54
2019-02-17T08:18:36.480Z,1001.56
2019-02-17T08:19:36.970Z,1001.43
2019-02-17T08:20:36.980Z,1001.44
2019-02-17T08:21:36.581Z,1001.44
2019-02-17T08:22:36.690Z,1001.45
2019-02-17T08:23:36.949Z,1001.48
2019-02-17T08:24:37.155Z,1001.50
2019-02-17T08:25:37.399Z,1001.36
2019-02-17T08:26:37.632Z,1001.44
2019-02-17T08:27:37.797Z,1001.37
2019-02-17T08:28:37.900Z,1001.46
2019-02-17T08:29:38.068Z,1001.39
2019-02-17T08:30:38.172Z,1001.42
2019-02-17T08:31:38.303Z,1001.48
2019-02-17T08:32:38.532Z,1001.35
2019-02-17T08:33:38.742Z,1001.37
2019-02-17T08:34:38.955Z,1001.40
2019-02-17T08:35:40.204Z,1001.41
2019-02-17T08:36:39.403Z,1001.35
2019-02-17T08:37:39.656Z,1001.41
2019-02-17T08:38:39.817Z,1001.34
2019-02-17T08:39:39.926Z,1001.33
2019-02-17T08:40:40.208Z,1001.27
2019-02-17T08:41:40.324Z,1001.40
2019-02-17T08:42:40.473Z,1001.37
2019-02-17T08:43:40.587Z,1001.40
2019-02-17T08:44:40.834Z,1001.32
2019-02-17T08:45:40.969Z,1001.33
2019-02-17T08:46:41.145Z,1001.29
2019-02-17T08:47:41.339Z,1001.30
2019-02-17T08:48:41.479Z,1001.28
2019-02-17T08:49:41.619Z,1001.27
2019-02-17T08:50:41.756Z,1001.19
2019-02-17T08:51:42.010Z,1001.20
2019-02-17T08:52:42.149Z,1001.21
2019-02-17T08:53:42.289Z,1001.19
2019-02-17T08:54:42.437Z,1001.17
2019-02-17T08:55:42.662Z,1001.15
2019-02-17T08:56:42.799Z,1001.13
2019-02-17T08:57:42.940Z,1001.14
2019-02-17T08:58:43.047Z,1001.15
2019-02-17T08:59:43.168Z,1001.11
2019-02-17T09:15:34.625Z,1001.04
2019-02-17T09:16:35.973Z,1001.02
2019-02-17T09:17:36.171Z,1000.97
2019-02-17T09:18:36.391Z,1001.01
2019-02-17T09:19:36.576Z,1000.93
2019-02-17T09:20:36.771Z,1000.86
2019-02-17T09:21:36.973Z,1000.89
2019-02-17T09:22:37.169Z,1000.81
2019-02-17T09:23:37.332Z,1000.86
2019-02-17T09:24:37.515Z,1000.86
2019-02-17T09:25:37.689Z,1000.79
2019-02-17T09:26:37.852Z,1000.78
2019-02-17T09:27:38.036Z,1000.76
2019-02-17T10:10:20.044Z,1000.42
2019-02-17T10:11:29.550Z,1000.44
2019-02-17T10:12:20.483Z,1000.38
2019-02-17T10:13:55.611Z,1000.38
2019-02-17T10:14:21.951Z,1000.33
2019-02-17T10:15:22.080Z,1000.36
2019-02-17T10:16:22.414Z,1000.32
2019-02-17T10:17:22.448Z,1000.30
2019-02-17T10:18:22.697Z,1000.32
2019-02-17T10:19:23.773Z,1000.26
2019-02-17T10:20:24.483Z,1000.18
2019-02-17T10:21:23.156Z,1000.21
2019-02-17T10:22:23.532Z,1000.22
2019-02-17T10:23:23.449Z,1000.28
2019-02-17T10:24:23.736Z,1000.17
2019-02-17T10:25:23.784Z,1000.22
2019-02-17T10:26:24.012Z,1000.14
2019-02-17T10:27:25.586Z,1000.20
2019-02-17T10:28:24.336Z,1000.13
2019-02-17T10:29:24.518Z,1000.17
2019-02-17T10:30:24.753Z,1000.14
2019-02-17T10:31:24.914Z,1000.07
2019-02-17T10:32:25.250Z,1000.16
2019-02-17T10:33:25.645Z,1000.12
2019-02-17T10:34:26.142Z,1000.10
2019-02-17T10:35:25.573Z,1000.02
2019-02-17T10:36:25.820Z,1000.10
2019-02-17T10:37:26.040Z,1000.03
2019-02-17T10:38:29.456Z,1000.06
2019-02-17T10:39:27.240Z,1000.05
2019-02-17T10:40:28.343Z,1000.00
2019-02-17T10:41:27.767Z,999.99
2019-02-17T10:42:30.930Z,1000.01
2019-02-17T10:43:28.274Z,1000.00
2019-02-17T10:44:27.546Z,1000.08
2019-02-17T10:45:31.878Z,1000.01
2019-02-17T10:46:28.713Z,999.95
2019-02-17T10:47:27.979Z,999.98
2019-02-17T10:48:29.636Z,999.91
2019-02-17T10:49:28.937Z,999.95
2019-02-17T10:50:28.484Z,999.96
2019-02-17T10:51:29.203Z,999.93
2019-02-17T10:52:29.834Z,999.95
2019-02-17T10:53:29.663Z,999.91
2019-02-17T10:54:29.951Z,999.92
2019-02-17T10:55:30.354Z,999.95
2019-02-17T10:56:29.593Z,999.84
2019-02-17T10:57:29.918Z,999.85
2019-02-17T10:58:30.073Z,999.87
2019-02-17T10:59:33.458Z,999.84
2019-02-17T11:30:30.833Z,999.48
2019-02-17T11:31:32.877Z,999.48
2019-02-17T11:32:32.881Z,999.44
2019-02-17T11:33:32.268Z,999.37
2019-02-17T11:34:32.450Z,999.39
2019-02-17T11:35:32.606Z,999.38
2019-02-17T11:36:32.774Z,999.40
2019-02-17T11:37:32.963Z,999.31
2019-02-17T11:38:33.136Z,999.32
2019-02-17T11:39:33.300Z,999.26
2019-02-17T11:40:33.455Z,999.25
2019-02-17T11:41:33.610Z,999.24
2019-02-17T11:42:33.755Z,999.26
2019-02-17T11:43:33.932Z,999.26
2019-02-17T11:44:34.104Z,999.26
2019-02-17T11:45:34.251Z,999.19
2019-02-17T11:46:34.418Z,999.24
2019-02-17T11:47:34.557Z,999.22
2019-02-17T11:48:34.739Z,999.24
2019-02-17T11:49:34.924Z,999.22
2019-02-17T11:50:35.078Z,999.16
2019-02-17T11:51:35.263Z,999.11
2019-02-17T11:52:35.447Z,999.11
2019-02-17T11:53:35.798Z,999.07
2019-02-17T11:54:36.366Z,999.07
2019-02-17T11:55:36.034Z,999.11
2019-02-17T11:56:36.217Z,999.12
2019-02-17T11:57:36.411Z,999.15
2019-02-17T11:58:36.667Z,999.12
2019-02-17T11:59:36.799Z,999.09
2019-02-17T12:00:36.909Z,999.05
2019-02-17T12:01:37.112Z,999.04
2019-02-17T12:02:37.337Z,999.12
2019-02-17T12:03:37.564Z,999.08
2019-02-17T12:04:37.786Z,999.04
2019-02-17T12:05:38.103Z,999.06
2019-02-17T12:06:38.190Z,999.02
2019-02-17T12:07:38.441Z,999.05
2019-02-17T12:08:38.881Z,999.00
2019-02-17T12:09:38.850Z,999.06
2019-02-17T12:10:39.098Z,998.96
2019-02-17T12:11:39.324Z,999.01
2019-02-17T12:12:39.651Z,999.03
2019-02-17T12:13:39.836Z,999.01
2019-02-17T12:14:40.008Z,999.02
2019-02-17T12:15:40.118Z,999.01
2019-02-17T12:16:40.343Z,998.98
2019-02-17T12:17:40.618Z,998.99
2019-02-17T12:18:40.845Z,998.98
2019-02-17T12:19:40.965Z,998.97
2019-02-17T12:20:41.112Z,998.97
2019-02-17T12:21:41.224Z,998.96
2019-02-17T12:22:41.362Z,998.96
2019-02-17T12:23:41.531Z,998.89
2019-02-17T12:24:41.694Z,998.88
2019-02-17T12:25:41.897Z,998.89
2019-02-17T12:26:42.021Z,998.87
2019-02-17T12:27:42.211Z,998.83
2019-02-17T12:28:42.734Z,998.91
2019-02-17T12:29:42.508Z,998.89
2019-02-17T12:30:42.659Z,998.92
2019-02-17T12:31:42.804Z,998.89
2019-02-17T12:32:43.987Z,998.86
2019-02-17T12:33:43.115Z,998.83
2019-02-17T12:34:43.249Z,998.80
2019-02-17T12:35:43.383Z,998.81
2019-02-17T12:36:43.657Z,998.82
2019-02-17T12:37:43.697Z,998.80
2019-02-17T12:38:43.799Z,998.77
2019-02-17T12:39:44.085Z,998.76
2019-02-17T12:40:44.202Z,998.76
2019-02-17T12:41:44.460Z,998.78
2019-02-17T12:42:44.630Z,998.78
2019-02-17T12:43:45.743Z,998.73
2019-02-17T12:44:44.938Z,998.66
2019-02-17T12:45:45.093Z,998.72
2019-02-17T13:06:23.157Z,998.67
2019-02-17T13:07:25.519Z,998.74
2019-02-17T13:08:24.789Z,998.71
2019-02-17T13:09:25.078Z,998.69
2019-02-17T13:10:25.793Z,998.62
2019-02-17T13:11:25.314Z,998.59
2019-02-17T13:12:25.832Z,998.65
2019-02-17T13:13:27.392Z,998.60
2019-02-17T13:14:26.158Z,998.55
2019-02-17T13:15:27.053Z,998.56
2019-02-17T13:16:26.493Z,998.48
2019-02-17T13:17:27.307Z,998.59
2019-02-17T13:18:26.905Z,998.59
2019-02-17T13:19:27.209Z,998.60
2019-02-17T13:20:27.780Z,998.61
2019-02-17T13:21:28.251Z,998.46
2019-02-17T13:22:27.915Z,998.49
2019-02-17T13:23:27.948Z,998.52
2019-02-17T13:24:28.332Z,998.44
2019-02-17T13:25:31.184Z,998.45
2019-02-17T13:26:29.240Z,998.49
2019-02-17T13:27:28.567Z,998.49
2019-02-17T13:28:28.839Z,998.46
2019-02-17T13:29:29.152Z,998.44
2019-02-17T13:30:28.862Z,998.46
2019-02-17T13:31:29.672Z,998.46
2019-02-17T13:32:29.814Z,998.33
2019-02-17T13:33:38.885Z,998.38
2019-02-17T13:34:31.400Z,998.37
2019-02-17T13:35:30.102Z,998.39
2019-02-17T13:36:30.807Z,998.32
2019-02-17T13:37:30.467Z,998.29
2019-02-17T13:38:30.562Z,998.32
2019-02-17T13:39:31.189Z,998.31
2019-02-17T13:40:31.181Z,998.29
2019-02-17T13:41:31.230Z,998.37
2019-02-17T13:42:31.490Z,998.34
2019-02-17T13:43:32.435Z,998.24
2019-02-17T13:44:31.980Z,998.23
2019-02-17T13:45:32.670Z,998.31
2019-02-17T13:46:32.208Z,998.28
2019-02-17T13:47:32.428Z,998.30
2019-02-17T13:48:32.690Z,998.31
2019-02-17T13:49:32.450Z,998.32
2019-02-17T13:50:33.134Z,998.25
2019-02-17T13:51:33.774Z,998.29
2019-02-17T13:52:33.866Z,998.24
2019-02-17T13:53:34.391Z,998.27
2019-02-17T13:54:33.822Z,998.19
2019-02-17T13:55:34.621Z,998.18
2019-02-17T13:56:34.861Z,998.18
2019-02-17T13:57:40.706Z,998.21
2019-02-17T13:58:34.211Z,998.23
2019-02-17T13:59:34.103Z,998.22
2019-02-17T14:00:33.996Z,998.27
2019-02-17T14:01:34.486Z,998.17
2019-02-17T14:02:34.944Z,998.21
2019-02-17T14:03:35.060Z,998.24
